Time;durP1;ratioP1;P1;durP2;ratioP2;P2;SDS_P1;SDS_P2;PMS_P1;PMS_P2;Temp;Humidity;BMP_temperature;BMP_pressure;BME280_temperature;BME280_humidity;BME280_pressure;Samples;Min_cycle;Max_cycle;Signal;HPM_P1;HPM_P2
2023/02/27 00:00:16;;;;;;;1.17;0.57;;;2.90;92.10;3.40;98707.00;;;;339940;28;90637;-90
2023/02/27 00:00:28;;;;;;;1.30;0.70;;;2.90;92.00;3.40;98716.00;;;;340407;28;83626;-89
2023/02/27 00:00:40;;;;;;;1.33;0.70;;;2.90;92.00;3.30;98725.00;;;;338905;28;91166;-90
2023/02/27 00:00:52;;;;;;;1.20;0.60;;;2.90;92.00;3.20;98712.00;;;;340570;28;83455;-90
2023/02/27 00:01:04;;;;;;;1.20;0.50;;;2.90;92.00;3.30;98708.00;;;;341252;28;91253;-90
2023/02/27 00:01:16;;;;;;;1.30;0.60;;;2.90;92.00;3.30;98716.00;;;;339115;28;82747;-89
2023/02/27 00:01:30;;;;;;;1.33;0.60;;;2.90;92.10;3.30;98716.00;;;;338829;28;89978;-90
2023/02/27 00:01:42;;;;;;;1.10;0.50;;;2.90;92.10;3.30;98709.00;;;;340433;28;83271;-89
2023/02/27 00:01:53;;;;;;;1.48;0.30;;;2.80;92.10;3.30;98712.00;;;;342500;28;90955;-90
2023/02/27 00:02:05;;;;;;;1.58;0.30;;;2.90;92.20;3.30;98710.00;;;;342776;28;83628;-90
2023/02/27 00:02:17;;;;;;;2.00;0.40;;;2.90;92.20;3.30;98716.00;;;;341576;28;88474;-90
2023/02/27 00:02:29;;;;;;;1.83;0.40;;;2.80;92.20;3.30;98716.00;;;;341752;28;82408;-90
2023/02/27 00:02:45;;;;;;;1.92;0.50;;;2.80;92.20;3.30;98715.00;;;;341334;28;92608;-90
2023/02/27 00:02:57;;;;;;;1.33;0.55;;;2.80;92.20;3.30;98713.00;;;;343000;28;84615;-90
2023/02/27 00:03:09;;;;;;;1.27;0.50;;;2.90;92.20;3.30;98707.00;;;;341508;28;90624;-89
2023/02/27 00:03:21;;;;;;;1.67;0.50;;;2.80;92.20;3.30;98715.00;;;;341773;28;82421;-89
2023/02/27 00:03:34;;;;;;;1.45;0.40;;;2.80;92.20;3.30;98711.00;;;;340277;28;87936;-89
2023/02/27 00:03:45;;;;;;;1.38;0.40;;;2.80;92.20;3.10;98712.00;;;;338918;28;83278;-89
2023/02/27 00:03:57;;;;;;;1.98;0.40;;;2.80;92.20;3.10;98697.00;;;;338907;28;89370;-89
2023/02/27 00:04:09;;;;;;;3.55;0.50;;;2.70;92.20;3.20;98709.00;;;;340474;28;82476;-89
2023/02/27 00:04:24;;;;;;;3.53;0.60;;;2.80;92.20;3.20;98701.00;;;;340255;28;89791;-89
2023/02/27 00:04:36;;;;;;;1.35;0.68;;;2.80;92.30;3.10;98711.00;;;;340420;28;83411;-89
2023/02/27 00:04:49;;;;;;;1.20;0.50;;;2.70;92.20;3.20;98714.00;;;;339869;28;88446;-89
2023/02/27 00:05:01;;;;;;;1.27;0.40;;;2.70;92.30;3.20;98701.00;;;;341467;28;82340;-89
2023/02/27 00:05:16;;;;;;;1.13;0.32;;;2.70;92.30;3.20;98710.00;;;;339890;28;90752;-89
2023/02/27 00:05:27;;;;;;;1.83;0.38;;;2.70;92.30;3.20;98701.00;;;;340951;28;83480;-89
2023/02/27 00:05:43;;;;;;;1.90;0.50;;;2.70;92.40;3.20;98716.00;;;;341721;28;88540;-89
2023/02/27 00:05:55;;;;;;;1.52;0.52;;;2.70;92.40;3.20;98720.00;;;;340606;28;82491;-89
2023/02/27 00:06:09;;;;;;;1.00;0.50;;;2.70;92.40;3.20;98722.00;;;;339836;28;90190;-89
2023/02/27 00:06:21;;;;;;;1.00;0.50;;;2.70;92.40;3.20;98714.00;;;;340436;28;82682;-89
2023/02/27 00:06:35;;;;;;;0.93;0.50;;;2.70;92.40;3.30;98727.00;;;;340276;28;90069;-90
2023/02/27 00:06:48;;;;;;;2.25;0.55;;;2.70;92.40;3.20;98730.00;;;;339214;28;84299;-89
2023/02/27 00:06:59;;;;;;;2.40;0.50;;;2.70;92.40;3.20;98713.00;;;;338913;28;88504;-89
2023/02/27 00:07:11;;;;;;;1.08;0.40;;;2.70;92.40;3.10;98718.00;;;;340572;28;83640;-89
2023/02/27 00:07:24;;;;;;;1.20;0.45;;;2.70;92.40;3.20;98719.00;;;;339999;28;89592;-90
2023/02/27 00:07:37;;;;;;;1.30;0.52;;;2.70;92.40;3.20;98719.00;;;;339081;28;83338;-90
2023/02/27 00:07:49;;;;;;;1.08;0.50;;;2.70;92.40;3.20;98731.00;;;;339902;28;90035;-89
2023/02/27 00:08:01;;;;;;;0.90;0.52;;;2.70;92.40;3.20;98723.00;;;;341851;28;83373;-90
2023/02/27 00:08:14;;;;;;;0.95;0.50;;;2.70;92.40;3.10;98722.00;;;;342598;28;90394;-89
2023/02/27 00:08:26;;;;;;;1.63;1.30;;;2.70;92.40;3.20;98725.00;;;;340461;28;82292;-89
2023/02/27 00:08:39;;;;;;;1.88;1.30;;;2.70;92.40;3.20;98716.00;;;;339995;28;88935;-89
2023/02/27 00:08:51;;;;;;;1.20;0.57;;;2.70;92.40;3.20;98711.00;;;;342865;28;82487;-90
2023/02/27 00:09:05;;;;;;;1.42;0.38;;;2.70;92.40;3.20;98711.00;;;;342586;28;88688;-89
2023/02/27 00:09:17;;;;;;;1.48;0.30;;;2.70;92.50;3.20;98732.00;;;;341412;28;84444;-89
2023/02/27 00:09:29;;;;;;;1.10;0.32;;;2.70;92.40;3.20;98711.00;;;;338251;28;90642;-90
2023/02/27 00:09:42;;;;;;;1.25;0.40;;;2.70;92.40;3.20;98716.00;;;;340650;28;83217;-89
2023/02/27 00:09:56;;;;;;;1.10;0.40;;;2.70;92.40;3.20;98720.00;;;;338627;28;88759;-89
2023/02/27 00:10:12;;;;;;;1.20;0.50;;;2.70;92.40;3.20;98716.00;;;;340454;28;83478;-90
2023/02/27 00:10:24;;;;;;;1.30;0.50;;;2.70;92.40;3.20;98721.00;;;;341552;28;88944;-89
2023/02/27 00:10:37;;;;;;;1.23;0.60;;;2.70;92.40;3.20;98717.00;;;;341857;28;83490;-88
2023/02/27 00:10:49;;;;;;;2.17;0.60;;;2.70;92.40;3.20;98724.00;;;;341637;28;87516;-89
2023/02/27 00:11:03;;;;;;;2.97;0.50;;;2.70;92.40;3.20;98723.00;;;;340478;28;83351;-89
2023/02/27 00:11:14;;;;;;;3.20;0.47;;;2.70;92.40;3.20;98714.00;;;;339165;28;88670;-89
2023/02/27 00:11:27;;;;;;;2.25;0.40;;;2.70;92.40;3.20;98725.00;;;;340469;28;83495;-90
2023/02/27 00:11:46;;;;;;;2.10;0.45;;;2.70;92.40;3.20;98726.00;;;;340193;28;89696;-89
2023/02/27 00:11:58;;;;;;;2.22;0.65;;;2.70;92.40;3.20;98729.00;;;;341249;28;83605;-90
2023/02/27 00:12:14;;;;;;;1.02;0.50;;;2.70;92.40;3.20;98705.00;;;;340701;28;88413;-90
2023/02/27 00:12:26;;;;;;;1.10;0.50;;;2.70;92.50;3.10;98722.00;;;;342320;28;82437;-90
2023/02/27 00:12:39;;;;;;;2.10;0.50;;;2.70;92.50;3.20;98727.00;;;;341857;28;91040;-89
2023/02/27 00:12:52;;;;;;;1.80;0.50;;;2.70;92.50;3.20;98724.00;;;;341750;28;82574;-90
2023/02/27 00:13:04;;;;;;;0.65;0.35;;;2.70;92.50;3.20;98727.00;;;;341849;28;87626;-88
2023/02/27 00:13:17;;;;;;;0.70;0.30;;;2.70;92.50;3.20;98728.00;;;;342033;28;82676;-89
2023/02/27 00:13:29;;;;;;;1.00;0.40;;;2.70;92.50;3.30;98711.00;;;;341700;28;92471;-90
2023/02/27 00:13:42;;;;;;;1.10;0.40;;;2.70;92.50;3.20;98712.00;;;;339597;28;83417;-90
2023/02/27 00:13:55;;;;;;;1.08;0.50;;;2.70;92.50;3.20;98725.00;;;;341455;28;88647;-90
2023/02/27 00:14:08;;;;;;;1.48;0.70;;;2.70;92.50;3.10;98716.00;;;;342350;28;83356;-90
2023/02/27 00:14:22;;;;;;;1.63;0.70;;;2.70;92.30;3.10;98721.00;;;;341959;28;88388;-90
2023/02/27 00:14:34;;;;;;;1.38;0.50;;;2.70;92.40;3.20;98725.00;;;;340770;28;82427;-89
2023/02/27 00:14:46;;;;;;;1.40;0.47;;;2.60;92.40;3.20;98723.00;;;;340204;28;91187;-90
2023/02/27 00:15:00;;;;;;;1.50;0.50;;;2.70;92.40;3.20;98735.00;;;;340343;28;83522;-89
2023/02/27 00:15:15;;;;;;;1.30;0.70;;;2.70;92.50;3.10;98733.00;;;;340264;28;89576;-90
2023/02/27 00:15:29;;;;;;;1.25;0.63;;;2.70;92.50;3.10;98715.00;;;;338185;28;82540;-90
2023/02/27 00:15:45;;;;;;;2.90;0.52;;;2.70;92.40;3.10;98726.00;;;;340544;28;89888;-90
2023/02/27 00:15:58;;;;;;;3.85;0.90;;;2.70;92.40;3.10;98728.00;;;;340762;28;82557;-89
2023/02/27 00:16:10;;;;;;;2.25;0.90;;;2.70;92.40;3.10;98722.00;;;;341708;28;88555;-89
2023/02/27 00:16:24;;;;;;;1.60;0.60;;;2.70;92.40;3.10;98720.00;;;;341261;28;82265;-90
2023/02/27 00:16:37;;;;;;;1.70;0.55;;;2.60;92.40;3.10;98718.00;;;;339825;28;87720;-89
2023/02/27 00:16:49;;;;;;;1.33;0.57;;;2.60;92.40;3.20;98722.00;;;;341028;28;84381;-90
2023/02/27 00:17:01;;;;;;;1.88;0.90;;;2.70;92.50;3.20;98720.00;;;;339347;28;90660;-90
2023/02/27 00:17:15;;;;;;;1.60;0.70;;;2.70;92.40;3.20;98712.00;;;;341019;28;82259;-89
2023/02/27 00:17:30;;;;;;;1.25;0.47;;;2.70;92.40;3.20;98718.00;;;;340373;28;90553;-90
2023/02/27 00:17:42;;;;;;;1.65;0.70;;;2.60;92.40;3.30;98714.00;;;;342013;28;83783;-90
2023/02/27 00:17:57;;;;;;;1.85;0.80;;;2.70;92.50;3.20;98717.00;;;;341719;28;91104;-89
2023/02/27 00:18:15;;;;;;;1.50;0.65;;;2.70;92.40;3.30;98727.00;;;;342128;28;82597;-90
2023/02/27 00:18:30;;;;;;;1.00;0.40;;;2.70;92.50;3.20;98714.00;;;;341529;28;92301;-90
2023/02/27 00:18:42;;;;;;;1.13;0.40;;;2.70;92.50;3.20;98717.00;;;;341882;28;83570;-90
2023/02/27 00:18:58;;;;;;;1.55;0.50;;;2.70;92.50;3.30;98715.00;;;;340242;28;90230;-90
2023/02/27 00:19:11;;;;;;;1.88;0.50;;;2.70;92.60;3.30;98725.00;;;;341857;28;82732;-90
2023/02/27 00:19:23;;;;;;;1.20;0.30;;;2.70;92.50;3.30;98721.00;;;;342583;28;91083;-91
2023/02/27 00:19:34;;;;;;;1.08;0.40;;;2.70;92.50;3.30;98720.00;;;;340685;28;82215;-91
2023/02/27 00:19:46;;;;;;;0.75;0.30;;;2.70;92.50;3.30;98715.00;;;;342901;28;91226;-90
2023/02/27 00:19:58;;;;;;;0.80;0.43;;;2.70;92.50;3.40;98714.00;;;;339078;28;82274;-91
2023/02/27 00:20:13;;;;;;;1.00;0.60;;;2.70;92.50;3.40;98725.00;;;;341192;28;91142;-90
2023/02/27 00:20:28;;;;;;;1.30;0.63;;;2.70;92.50;3.30;98725.00;;;;344356;28;82391;-90
2023/02/27 00:20:40;;;;;;;1.10;0.60;;;2.80;92.50;3.30;98721.00;;;;341361;28;93216;-90
2023/02/27 00:20:54;;;;;;;1.33;0.60;;;2.80;92.50;3.40;98723.00;;;;342000;28;84037;-90
2023/02/27 00:21:06;;;;;;;1.35;0.50;;;2.80;92.50;3.40;98725.00;;;;341829;28;86896;-90
2023/02/27 00:21:20;;;;;;;1.00;0.50;;;2.80;92.50;3.40;98731.00;;;;342019;28;83029;-90
2023/02/27 00:21:32;;;;;;;1.00;0.90;;;2.80;92.50;3.30;98727.00;;;;340459;28;87067;-91
2023/02/27 00:21:47;;;;;;;1.02;0.70;;;2.80;92.40;3.20;98727.00;;;;341963;28;82397;-90
2023/02/27 00:21:59;;;;;;;1.15;0.47;;;2.80;92.30;3.30;98727.00;;;;340374;28;90947;-90
2023/02/27 00:22:11;;;;;;;1.88;0.40;;;2.80;92.30;3.30;98736.00;;;;341876;28;82567;-90
2023/02/27 00:22:26;;;;;;;2.13;0.55;;;2.80;92.40;3.30;98729.00;;;;340030;28;92327;-91
2023/02/27 00:22:39;;;;;;;1.50;0.60;;;2.80;92.40;3.30;98735.00;;;;339308;28;83496;-90
2023/02/27 00:22:52;;;;;;;1.23;0.60;;;2.80;92.30;3.20;98722.00;;;;339205;28;91822;-90
2023/02/27 00:23:05;;;;;;;1.35;0.68;;;2.80;92.30;3.30;98726.00;;;;341058;28;83115;-90
2023/02/27 00:23:17;;;;;;;1.98;0.63;;;2.80;92.30;3.30;98725.00;;;;340496;28;91700;-90
2023/02/27 00:23:29;;;;;;;1.77;0.65;;;2.70;92.50;3.20;98733.00;;;;342189;28;84332;-90
2023/02/27 00:23:41;;;;;;;1.88;0.57;;;2.80;92.20;3.10;98721.00;;;;339188;28;88568;-90
2023/02/27 00:23:52;;;;;;;1.20;0.50;;;2.70;92.20;3.20;98719.00;;;;340544;28;84704;-90
2023/02/27 00:24:05;;;;;;;1.48;0.70;;;2.70;92.20;3.20;98736.00;;;;342962;28;91888;-90
2023/02/27 00:24:18;;;;;;;1.63;0.60;;;2.70;92.30;3.30;98728.00;;;;341260;28;84932;-90
2023/02/27 00:24:30;;;;;;;1.55;0.40;;;2.70;92.30;3.20;98726.00;;;;341058;28;89507;-90
2023/02/27 00:24:42;;;;;;;1.50;0.40;;;2.70;92.30;3.20;98721.00;;;;340214;28;83218;-90
2023/02/27 00:24:54;;;;;;;1.00;0.50;;;2.70;92.30;3.20;98722.00;;;;338661;28;91272;-90
2023/02/27 00:25:07;;;;;;;2.10;0.52;;;2.70;92.30;3.20;98723.00;;;;341535;28;83257;-90
2023/02/27 00:25:19;;;;;;;2.17;0.50;;;2.70;92.30;3.20;98731.00;;;;342380;28;89948;-90
2023/02/27 00:25:32;;;;;;;1.33;0.50;;;2.70;92.30;3.10;98734.00;;;;341660;28;83407;-90
2023/02/27 00:25:44;;;;;;;1.10;0.45;;;2.70;92.30;3.20;98728.00;;;;344109;28;89823;-90
2023/02/27 00:25:56;;;;;;;7.40;0.60;;;2.70;92.30;3.20;98725.00;;;;341137;28;83627;-89
2023/02/27 00:26:08;;;;;;;7.85;0.50;;;2.70;92.30;3.20;98724.00;;;;341064;28;91334;-90
2023/02/27 00:26:20;;;;;;;1.38;0.32;;;2.70;92.30;3.20;98732.00;;;;341733;28;83237;-90
2023/02/27 00:26:33;;;;;;;1.60;0.50;;;2.70;92.30;3.20;98730.00;;;;341245;28;90578;-90
2023/02/27 00:26:45;;;;;;;1.58;0.80;;;2.70;92.30;3.20;98733.00;;;;340354;28;83360;-90
2023/02/27 00:26:57;;;;;;;1.20;0.60;;;2.70;92.40;3.20;98734.00;;;;342601;28;89546;-91
2023/02/27 00:27:08;;;;;;;0.98;0.43;;;2.70;92.40;3.20;98738.00;;;;340390;28;83182;-90
2023/02/27 00:27:20;;;;;;;1.33;0.75;;;2.70;92.40;3.20;98737.00;;;;339901;28;90044;-90
2023/02/27 00:27:33;;;;;;;1.60;0.80;;;2.70;92.40;3.20;98728.00;;;;340420;28;83419;-90
2023/02/27 00:27:45;;;;;;;1.40;0.50;;;2.70;92.40;3.20;98726.00;;;;341186;28;91001;-90
2023/02/27 00:27:57;;;;;;;0.95;0.43;;;2.70;92.30;3.10;98736.00;;;;341679;28;83368;-89
2023/02/27 00:28:09;;;;;;;0.98;0.43;;;2.70;92.20;3.20;98725.00;;;;343717;28;91404;-91
2023/02/27 00:28:21;;;;;;;1.42;0.50;;;2.70;92.20;3.20;98741.00;;;;341637;28;83326;-91
2023/02/27 00:28:33;;;;;;;1.70;0.60;;;2.70;92.20;3.20;98745.00;;;;343826;28;91962;-90
2023/02/27 00:28:45;;;;;;;1.67;0.57;;;2.70;92.30;3.30;98739.00;;;;340105;28;83477;-90
2023/02/27 00:28:57;;;;;;;1.02;0.40;;;2.70;92.30;3.20;98727.00;;;;343908;28;90835;-90
2023/02/27 00:29:09;;;;;;;0.75;0.40;;;2.70;92.30;3.30;98737.00;;;;341672;28;83400;-91
2023/02/27 00:29:21;;;;;;;1.00;0.50;;;2.70;92.30;3.20;98738.00;;;;340824;28;90706;-90
2023/02/27 00:29:33;;;;;;;1.27;0.57;;;2.70;92.30;3.30;98737.00;;;;340166;28;83681;-90
2023/02/27 00:29:44;;;;;;;1.20;0.52;;;2.70;92.30;3.30;98733.00;;;;339729;28;91106;-90
2023/02/27 00:29:57;;;;;;;1.00;0.40;;;2.70;92.30;3.30;98739.00;;;;340249;28;83455;-90
2023/02/27 00:30:12;;;;;;;0.70;0.40;;;2.70;92.30;3.30;98738.00;;;;341357;28;88631;-90
2023/02/27 00:30:25;;;;;;;1.35;0.88;;;2.80;92.40;3.20;98738.00;;;;340409;28;83427;-90
2023/02/27 00:30:37;;;;;;;1.55;1.00;;;2.70;92.40;3.20;98733.00;;;;339741;28;91140;-90
2023/02/27 00:30:49;;;;;;;0.93;0.60;;;2.70;92.30;3.30;98729.00;;;;340281;28;83197;-90
2023/02/27 00:31:03;;;;;;;1.00;0.52;;;2.70;92.30;3.30;98740.00;;;;339678;28;91949;-90
2023/02/27 00:31:15;;;;;;;0.90;0.40;;;2.70;92.30;3.30;98729.00;;;;341557;28;85055;-89
2023/02/27 00:31:27;;;;;;;0.82;0.40;;;2.70;92.30;3.30;98743.00;;;;339917;28;90310;-90
2023/02/27 00:31:39;;;;;;;1.02;0.43;;;2.70;92.40;3.30;98747.00;;;;339079;28;82418;-90
2023/02/27 00:31:52;;;;;;;1.40;0.52;;;2.70;92.40;3.30;98738.00;;;;340007;28;89240;-90
2023/02/27 00:32:04;;;;;;;2.00;0.60;;;2.80;92.40;3.30;98744.00;;;;342900;28;85057;-90
2023/02/27 00:32:16;;;;;;;2.75;0.77;;;2.70;92.40;3.30;98740.00;;;;339983;28;92218;-90
2023/02/27 00:32:28;;;;;;;2.53;0.65;;;2.80;92.40;3.30;98732.00;;;;340251;28;84883;-90
2023/02/27 00:32:40;;;;;;;1.58;0.60;;;2.80;92.30;3.30;98748.00;;;;339634;28;91015;-90
2023/02/27 00:32:55;;;;;;;1.45;0.75;;;2.80;92.30;3.30;98745.00;;;;340187;28;83772;-91
2023/02/27 00:33:07;;;;;;;1.55;0.85;;;2.80;92.30;3.30;98735.00;;;;341251;28;91892;-90
2023/02/27 00:33:19;;;;;;;1.50;0.65;;;2.80;92.40;3.30;98739.00;;;;338843;28;83419;-90
2023/02/27 00:33:31;;;;;;;1.52;0.50;;;2.80;92.30;3.30;98736.00;;;;339918;28;90544;-90
2023/02/27 00:33:43;;;;;;;1.40;0.60;;;2.80;92.30;3.30;98740.00;;;;340309;28;84448;-90
2023/02/27 00:33:55;;;;;;;1.23;0.68;;;2.80;92.30;3.30;98740.00;;;;338555;28;91236;-89
2023/02/27 00:34:07;;;;;;;1.17;0.60;;;2.80;92.30;3.30;98742.00;;;;341439;28;83395;-90
2023/02/27 00:34:19;;;;;;;1.50;0.73;;;2.80;92.30;3.30;98741.00;;;;341305;28;89480;-90
2023/02/27 00:34:31;;;;;;;1.10;0.60;;;2.80;92.20;3.30;98740.00;;;;340325;28;85060;-90
2023/02/27 00:34:43;;;;;;;1.40;0.63;;;2.80;92.20;3.30;98738.00;;;;338614;28;89189;-90
2023/02/27 00:34:55;;;;;;;1.80;0.88;;;2.80;92.20;3.30;98746.00;;;;341390;28;84110;-91
2023/02/27 00:35:09;;;;;;;1.60;0.80;;;2.80;92.20;3.30;98745.00;;;;338564;28;89774;-90
2023/02/27 00:35:22;;;;;;;0.98;0.50;;;2.80;92.20;3.20;98739.00;;;;338843;28;82684;-90
2023/02/27 00:35:34;;;;;;;1.20;0.57;;;2.80;92.20;3.10;98740.00;;;;339832;28;92553;-90
2023/02/27 00:35:57;;;;;;;1.00;0.50;;;2.80;92.10;3.20;98730.00;;;;341196;28;83259;-90
2023/02/27 00:36:09;;;;;;;1.60;0.43;;;2.80;92.10;3.20;98736.00;;;;338357;28;90912;-90
2023/02/27 00:36:21;;;;;;;1.73;0.65;;;2.70;92.20;3.30;98751.00;;;;341427;28;83796;-90
2023/02/27 00:36:33;;;;;;;1.73;0.70;;;2.80;92.30;3.30;98737.00;;;;339715;28;91858;-90
2023/02/27 00:36:44;;;;;;;1.50;0.70;;;2.80;92.30;3.30;98745.00;;;;341576;28;83316;-90
2023/02/27 00:36:56;;;;;;;1.78;0.80;;;2.80;92.30;3.20;98747.00;;;;339730;28;91176;-90
2023/02/27 00:37:08;;;;;;;1.90;0.80;;;2.70;92.20;3.10;98749.00;;;;340347;28;83529;-91
2023/02/27 00:37:20;;;;;;;1.60;0.65;;;2.70;92.20;3.10;98747.00;;;;341106;28;91629;-90
2023/02/27 00:37:33;;;;;;;1.55;0.57;;;2.70;92.20;3.20;98737.00;;;;340348;28;83937;-91
2023/02/27 00:37:45;;;;;;;1.77;0.70;;;2.70;92.10;3.20;98747.00;;;;340011;28;90433;-90
2023/02/27 00:37:57;;;;;;;1.60;0.70;;;2.70;92.20;3.20;98746.00;;;;340288;28;83423;-90
2023/02/27 00:38:09;;;;;;;1.15;0.50;;;2.70;92.20;3.30;98739.00;;;;339926;28;89732;-90
2023/02/27 00:38:21;;;;;;;1.20;0.50;;;2.70;92.20;3.20;98749.00;;;;342776;28;83918;-90
2023/02/27 00:38:33;;;;;;;1.20;0.50;;;2.70;92.20;3.30;98736.00;;;;341236;28;92035;-90
2023/02/27 00:38:45;;;;;;;1.23;0.52;;;2.70;92.20;3.10;98735.00;;;;340044;28;84823;-90
2023/02/27 00:38:57;;;;;;;1.40;0.75;;;2.70;92.30;3.10;98745.00;;;;341217;28;91547;-90
2023/02/27 00:39:09;;;;;;;1.55;0.85;;;2.70;92.30;3.20;98745.00;;;;343103;28;83349;-90
2023/02/27 00:39:21;;;;;;;1.30;0.50;;;2.70;92.30;3.20;98744.00;;;;341188;28;93399;-90
2023/02/27 00:39:33;;;;;;;1.38;0.50;;;2.70;92.30;3.20;98730.00;;;;342777;28;83421;-90
2023/02/27 00:39:45;;;;;;;1.38;0.50;;;2.70;92.30;3.20;98739.00;;;;339909;28;92475;-90
2023/02/27 00:39:57;;;;;;;1.30;0.50;;;2.70;92.30;3.20;98743.00;;;;340353;28;82423;-90
2023/02/27 00:40:10;;;;;;;1.38;0.43;;;2.70;92.30;3.10;98746.00;;;;341060;28;91038;-90
2023/02/27 00:40:24;;;;;;;1.50;0.40;;;2.70;92.30;3.20;98741.00;;;;341631;28;83485;-90
2023/02/27 00:40:36;;;;;;;1.50;0.40;;;2.70;92.30;3.20;98747.00;;;;341411;28;89104;-89
2023/02/27 00:40:48;;;;;;;1.15;0.43;;;2.70;92.30;3.20;98740.00;;;;338893;28;83462;-90
2023/02/27 00:41:00;;;;;;;1.55;0.70;;;2.70;92.30;3.20;98724.00;;;;341351;28;89600;-90
2023/02/27 00:41:12;;;;;;;1.50;0.60;;;2.70;92.30;3.20;98736.00;;;;341532;28;83682;-90
2023/02/27 00:41:23;;;;;;;1.25;0.45;;;2.70;92.30;3.20;98737.00;;;;341251;28;88926;-90
2023/02/27 00:41:36;;;;;;;1.52;0.43;;;2.70;92.30;3.10;98738.00;;;;340319;28;83589;-90
2023/02/27 00:41:48;;;;;;;2.55;0.60;;;2.70;92.30;3.20;98738.00;;;;338416;28;92213;-90
2023/02/27 00:42:00;;;;;;;3.47;0.90;;;2.70;92.40;3.30;98749.00;;;;342558;28;83345;-91
2023/02/27 00:42:11;;;;;;;3.03;1.00;;;2.70;92.40;3.20;98752.00;;;;343915;28;90689;-90
2023/02/27 00:42:23;;;;;;;1.10;0.85;;;2.70;92.30;3.10;98744.00;;;;342868;28;83998;-90
2023/02/27 00:42:35;;;;;;;0.93;0.40;;;2.70;92.30;3.10;98740.00;;;;341300;28;88423;-90
2023/02/27 00:42:48;;;;;;;0.90;0.30;;;2.70;92.30;3.20;98742.00;;;;343002;28;83472;-91
2023/02/27 00:43:01;;;;;;;1.20;0.50;;;2.70;92.30;3.20;98749.00;;;;341257;28;88315;-91
2023/02/27 00:43:12;;;;;;;1.08;0.50;;;2.70;92.30;3.10;98743.00;;;;340160;28;83948;-90
2023/02/27 00:43:25;;;;;;;1.15;0.50;;;2.70;92.30;3.10;98744.00;;;;341220;28;90259;-90
2023/02/27 00:43:37;;;;;;;3.40;0.60;;;2.70;92.30;3.10;98752.00;;;;343029;28;82559;-90
2023/02/27 00:43:48;;;;;;;3.75;0.45;;;2.70;92.30;3.20;98750.00;;;;342484;28;90891;-90
2023/02/27 00:44:00;;;;;;;3.13;0.57;;;2.70;92.30;3.20;98754.00;;;;342899;28;83582;-91
2023/02/27 00:44:12;;;;;;;2.03;0.52;;;2.70;92.40;3.20;98752.00;;;;339633;28;90795;-90
2023/02/27 00:44:24;;;;;;;1.67;0.70;;;2.70;92.40;3.20;98744.00;;;;341615;28;84720;-90
2023/02/27 00:44:37;;;;;;;1.50;0.60;;;2.70;92.40;3.20;98750.00;;;;338600;28;90785;-90
2023/02/27 00:44:49;;;;;;;1.83;0.50;;;2.70;92.60;3.20;98747.00;;;;340346;28;83427;-90
2023/02/27 00:45:01;;;;;;;1.60;0.50;;;2.70;92.40;3.30;98741.00;;;;339993;28;91793;-90
2023/02/27 00:45:13;;;;;;;1.17;0.43;;;2.70;92.40;3.30;98750.00;;;;343058;28;83408;-90
2023/02/27 00:45:25;;;;;;;1.13;0.60;;;2.70;92.30;3.30;98758.00;;;;339756;28;91425;-90
2023/02/27 00:45:37;;;;;;;1.20;0.60;;;2.70;92.30;3.30;98748.00;;;;341739;28;84346;-90
2023/02/27 00:45:49;;;;;;;1.38;0.55;;;2.70;92.30;3.20;98749.00;;;;339975;28;89463;-90
2023/02/27 00:46:00;;;;;;;1.23;0.40;;;2.70;92.30;3.30;98747.00;;;;337531;28;83829;-90
2023/02/27 00:46:12;;;;;;;1.23;0.40;;;2.70;92.30;3.20;98746.00;;;;338560;28;90887;-90
2023/02/27 00:46:24;;;;;;;2.00;0.40;;;2.70;92.30;3.10;98754.00;;;;341593;28;84962;-90
2023/02/27 00:46:36;;;;;;;1.77;0.40;;;2.70;92.20;3.00;98750.00;;;;343801;28;89961;-90
2023/02/27 00:46:48;;;;;;;2.00;0.40;;;2.70;92.20;3.10;98750.00;;;;342737;28;83315;-90
2023/02/27 00:47:00;;;;;;;1.85;0.45;;;2.70;92.20;3.20;98747.00;;;;341344;28;87710;-90
2023/02/27 00:47:12;;;;;;;1.50;0.50;;;2.70;92.20;3.10;98755.00;;;;340148;28;82361;-90
2023/02/27 00:47:24;;;;;;;1.50;0.55;;;2.70;92.20;3.10;98745.00;;;;338583;28;88882;-89
2023/02/27 00:47:36;;;;;;;1.22;0.40;;;2.70;92.40;3.10;98764.00;;;;341743;28;84892;-90
2023/02/27 00:47:48;;;;;;;1.27;0.40;;;2.70;92.20;3.10;98755.00;;;;339985;28;88369;-90
2023/02/27 00:48:00;;;;;;;1.25;0.45;;;2.60;92.20;3.10;98756.00;;;;341506;28;83291;-90
2023/02/27 00:48:11;;;;;;;1.04;0.58;;;2.70;92.20;3.10;98757.00;;;;342552;28;91033;-91
2023/02/27 00:48:23;;;;;;;1.20;0.65;;;2.70;92.20;3.10;98753.00;;;;341708;28;82306;-91
2023/02/27 00:48:35;;;;;;;1.50;0.70;;;2.60;92.20;3.10;98753.00;;;;341179;28;92818;-89
2023/02/27 00:48:47;;;;;;;1.80;0.82;;;2.60;92.20;3.10;98750.00;;;;341507;28;83561;-90
2023/02/27 00:48:59;;;;;;;1.58;0.80;;;2.60;92.20;3.00;98751.00;;;;341432;28;88644;-90
2023/02/27 00:49:11;;;;;;;4.95;0.70;;;2.60;92.20;3.10;98758.00;;;;341769;28;83460;-90
2023/02/27 00:49:24;;;;;;;4.90;0.60;;;2.60;92.20;3.10;98750.00;;;;341068;28;90814;-90
2023/02/27 00:49:36;;;;;;;4.00;0.60;;;2.60;92.30;3.10;98752.00;;;;341704;28;83374;-90
2023/02/27 00:49:48;;;;;;;1.83;0.60;;;2.60;92.30;3.10;98761.00;;;;341291;28;91864;-90
2023/02/27 00:50:00;;;;;;;1.70;0.60;;;2.60;92.30;3.10;98751.00;;;;340248;28;83116;-90
2023/02/27 00:50:13;;;;;;;1.20;0.70;;;2.60;92.30;3.10;98758.00;;;;345497;28;89359;-90
2023/02/27 00:50:25;;;;;;;0.85;0.50;;;2.60;92.40;3.10;98751.00;;;;341695;28;85217;-90
2023/02/27 00:50:37;;;;;;;1.15;0.52;;;2.60;92.30;3.10;98759.00;;;;341051;28;90711;-90
2023/02/27 00:50:49;;;;;;;1.10;0.50;;;2.60;92.40;3.10;98752.00;;;;341340;28;84275;-90
2023/02/27 00:51:01;;;;;;;1.33;0.50;;;2.60;92.40;3.10;98751.00;;;;339875;28;89943;-90
2023/02/27 00:51:13;;;;;;;1.63;0.60;;;2.60;92.40;3.20;98759.00;;;;339995;28;83814;-90
2023/02/27 00:51:25;;;;;;;1.90;0.80;;;2.60;92.40;3.20;98747.00;;;;339952;28;89720;-90
2023/02/27 00:51:38;;;;;;;1.45;0.80;;;2.60;92.40;3.20;98753.00;;;;341709;28;82446;-90
2023/02/27 00:51:51;;;;;;;0.95;0.43;;;2.60;92.40;3.20;98751.00;;;;339797;28;91036;-90
2023/02/27 00:52:03;;;;;;;1.63;0.60;;;2.70;92.40;3.20;98752.00;;;;341468;28;83504;-90
2023/02/27 00:52:15;;;;;;;1.80;0.55;;;2.60;92.40;3.20;98761.00;;;;341436;28;89741;-91
2023/02/27 00:52:27;;;;;;;1.75;0.47;;;2.70;92.40;3.20;98757.00;;;;344448;28;83517;-90
2023/02/27 00:52:39;;;;;;;1.00;0.50;;;2.70;92.40;3.20;98756.00;;;;339805;28;91357;-90
2023/02/27 00:52:51;;;;;;;2.72;0.60;;;2.60;92.40;3.20;98755.00;;;;341752;28;83462;-90
2023/02/27 00:53:03;;;;;;;2.95;0.63;;;2.70;92.50;3.20;98748.00;;;;340175;28;89551;-89
2023/02/27 00:53:15;;;;;;;1.75;0.60;;;2.70;92.40;3.20;98758.00;;;;342147;28;83640;-90
2023/02/27 00:53:27;;;;;;;1.75;0.70;;;2.60;92.40;3.10;98752.00;;;;341275;28;89027;-91
2023/02/27 00:53:39;;;;;;;1.20;0.60;;;2.70;92.30;3.10;98758.00;;;;341776;28;83410;-90
2023/02/27 00:53:51;;;;;;;0.93;0.32;;;2.70;92.30;3.20;98754.00;;;;342693;28;92154;-90
2023/02/27 00:54:03;;;;;;;0.95;0.40;;;2.70;92.30;3.10;98759.00;;;;343024;28;83598;-90
2023/02/27 00:54:15;;;;;;;0.90;0.47;;;2.60;92.30;3.20;98763.00;;;;340063;28;89298;-90
2023/02/27 00:54:27;;;;;;;0.93;0.40;;;2.70;92.30;3.10;98753.00;;;;342647;28;83936;-90
2023/02/27 00:54:39;;;;;;;2.10;0.60;;;2.60;92.20;3.10;98760.00;;;;340017;28;89760;-90
2023/02/27 00:54:51;;;;;;;2.65;0.80;;;2.60;92.20;3.20;98753.00;;;;342910;28;83725;-90
2023/02/27 00:55:03;;;;;;;1.77;0.90;;;2.70;92.20;3.10;98756.00;;;;341317;28;89017;-90
2023/02/27 00:55:15;;;;;;;1.40;0.75;;;2.70;92.20;3.10;98748.00;;;;340355;28;83387;-88
2023/02/27 00:55:27;;;;;;;3.10;2.00;;;2.70;92.20;3.10;98752.00;;;;341248;28;92455;-90
2023/02/27 00:55:39;;;;;;;2.90;1.92;;;2.70;92.20;3.20;98760.00;;;;345678;28;83513;-90
2023/02/27 00:55:51;;;;;;;1.73;0.98;;;2.60;92.20;3.20;98763.00;;;;341298;28;89938;-91
2023/02/27 00:56:03;;;;;;;1.70;0.70;;;2.70;92.30;3.20;98760.00;;;;341756;28;83409;-90
2023/02/27 00:56:15;;;;;;;1.80;0.82;;;2.70;92.30;3.10;98754.00;;;;342444;28;91909;-90
2023/02/27 00:56:27;;;;;;;1.45;0.82;;;2.70;92.30;3.20;98755.00;;;;343047;28;83375;-91
2023/02/27 00:56:39;;;;;;;1.70;0.75;;;2.70;92.30;3.20;98767.00;;;;342666;28;89546;-91
2023/02/27 00:56:51;;;;;;;1.44;0.70;;;2.60;92.40;3.20;98760.00;;;;341655;28;83495;-89
2023/02/27 00:57:03;;;;;;;1.30;0.75;;;2.70;92.30;3.20;98757.00;;;;341194;28;91010;-90
2023/02/27 00:57:15;;;;;;;1.27;0.63;;;2.70;92.30;3.20;98767.00;;;;341605;28;83831;-90
2023/02/27 00:57:27;;;;;;;1.08;0.47;;;2.70;92.30;3.30;98773.00;;;;339831;28;90760;-90
2023/02/27 00:57:39;;;;;;;1.30;0.40;;;2.70;92.30;3.20;98760.00;;;;344522;28;82421;-90